createdAt,value
2017-05-09T00:01:47.052Z,4.83
2017-05-09T00:04:40.907Z,4.82
2017-05-09T00:07:34.784Z,4.83
2017-05-09T00:10:28.630Z,4.83
2017-05-09T00:13:22.392Z,4.84
2017-05-09T00:16:16.192Z,4.86
2017-05-09T00:22:03.727Z,4.94
2017-05-09T00:24:57.617Z,4.98
2017-05-09T00:27:51.476Z,5.01
2017-05-09T00:30:45.384Z,5.05
2017-05-09T00:33:39.265Z,5.11
2017-05-09T00:36:33.155Z,5.16
2017-05-09T00:39:27.014Z,5.20
2017-05-09T00:42:20.851Z,5.25
2017-05-09T00:48:08.538Z,5.31
2017-05-09T00:56:50.112Z,5.35
2017-05-09T00:59:43.942Z,5.37
2017-05-09T01:05:31.714Z,5.42
2017-05-09T01:08:25.654Z,5.43
2017-05-09T01:11:19.896Z,5.45
2017-05-09T01:14:13.789Z,5.47
2017-05-09T01:17:07.661Z,5.49
2017-05-09T01:20:01.543Z,5.50
2017-05-09T01:22:55.381Z,5.51
2017-05-09T01:28:43.287Z,5.52
2017-05-09T01:34:30.905Z,5.48
2017-05-09T01:40:18.670Z,5.41
2017-05-09T01:43:12.510Z,5.37
2017-05-09T01:46:06.449Z,5.33
2017-05-09T01:49:00.298Z,5.30
2017-05-09T01:57:42.137Z,5.21
2017-05-09T02:00:35.997Z,5.22
2017-05-09T02:09:17.717Z,5.23
2017-05-09T02:12:11.624Z,5.25
2017-05-09T02:15:05.407Z,5.28
2017-05-09T02:20:53.280Z,5.31
2017-05-09T02:23:47.239Z,5.33
2017-05-09T02:26:41.092Z,5.34
2017-05-09T02:32:29.167Z,5.37
2017-05-09T02:38:17.009Z,5.42
2017-05-09T02:41:10.838Z,5.46
2017-05-09T02:44:04.649Z,5.48
2017-05-09T02:49:52.543Z,5.49
2017-05-09T02:52:46.510Z,5.51
2017-05-09T02:58:34.360Z,5.54
2017-05-09T03:01:28.324Z,5.56
2017-05-09T03:10:09.938Z,5.59
2017-05-09T03:13:03.804Z,5.59
2017-05-09T03:15:57.653Z,5.57
2017-05-09T03:18:51.470Z,5.57
2017-05-09T03:21:45.726Z,5.56
2017-05-09T03:24:39.576Z,5.55
2017-05-09T03:27:33.472Z,5.55
2017-05-09T03:36:15.052Z,5.60
2017-05-09T03:39:08.991Z,5.63
2017-05-09T03:44:56.777Z,5.66
2017-05-09T03:50:45.108Z,5.68
2017-05-09T03:53:38.921Z,5.70
2017-05-09T03:56:32.757Z,5.73
2017-05-09T04:02:20.717Z,5.76
2017-05-09T04:05:14.620Z,5.79
2017-05-09T04:08:08.490Z,5.81
2017-05-09T04:11:02.396Z,5.83
2017-05-09T04:13:56.326Z,5.85
2017-05-09T04:16:50.438Z,5.88
2017-05-09T04:19:44.363Z,5.92
2017-05-09T04:22:38.304Z,5.96
2017-05-09T04:25:32.212Z,6.01
2017-05-09T04:31:20.159Z,6.09
2017-05-09T04:34:13.999Z,6.12
2017-05-09T04:37:07.922Z,6.14
2017-05-09T04:40:01.843Z,6.16
2017-05-09T04:42:56.026Z,6.20
2017-05-09T04:48:43.880Z,6.27
2017-05-09T04:51:37.817Z,6.31
2017-05-09T04:57:25.814Z,6.38
2017-05-09T05:00:19.777Z,6.42
2017-05-09T05:03:13.710Z,6.46
2017-05-09T05:06:07.740Z,6.51
2017-05-09T05:09:01.794Z,6.54
2017-05-09T05:11:55.704Z,6.59
2017-05-09T05:17:43.831Z,6.74
2017-05-09T05:20:37.823Z,6.80
2017-05-09T05:23:31.906Z,6.86
2017-05-09T05:26:25.955Z,6.90
2017-05-09T05:29:19.865Z,6.93
2017-05-09T05:32:13.893Z,6.97
2017-05-09T05:35:07.865Z,7.00
2017-05-09T05:38:01.951Z,7.03
2017-05-09T05:40:55.974Z,7.06
2017-05-09T05:43:50.024Z,7.12
2017-05-09T05:46:44.613Z,7.16
2017-05-09T05:49:38.595Z,7.19
2017-05-09T05:52:32.549Z,7.25
2017-05-09T05:55:26.737Z,7.28
2017-05-09T05:58:20.654Z,7.34
2017-05-09T06:01:14.677Z,7.42
2017-05-09T06:04:08.701Z,7.47
2017-05-09T06:07:02.800Z,7.55
2017-05-09T06:09:56.840Z,7.66
2017-05-09T06:12:50.926Z,7.79
2017-05-09T06:15:45.028Z,7.94
2017-05-09T06:18:39.129Z,8.11
2017-05-09T06:21:33.266Z,8.28
2017-05-09T06:24:27.442Z,8.45
2017-05-09T06:27:21.547Z,8.63
2017-05-09T06:30:15.646Z,8.82
2017-05-09T06:36:03.964Z,9.29
2017-05-09T06:38:58.092Z,9.38
2017-05-09T06:41:52.300Z,9.33
2017-05-09T06:44:46.532Z,9.22
2017-05-09T06:47:40.656Z,9.19
2017-05-09T06:50:34.703Z,9.23
2017-05-09T06:53:28.871Z,9.45
2017-05-09T06:56:23.089Z,9.73
2017-05-09T06:59:17.399Z,10.05
2017-05-09T07:05:06.091Z,10.75
2017-05-09T07:08:00.370Z,11.12
2017-05-09T07:10:54.813Z,11.53
2017-05-09T07:13:49.162Z,11.95
2017-05-09T07:16:43.579Z,12.28
2017-05-09T07:19:38.049Z,12.57
2017-05-09T07:22:32.522Z,12.94
2017-05-09T07:25:26.974Z,13.25
2017-05-09T07:28:21.411Z,13.51
2017-05-09T07:31:16.039Z,13.62
2017-05-09T07:34:10.569Z,13.80
2017-05-09T07:37:05.092Z,13.77
2017-05-09T07:39:59.594Z,13.67
2017-05-09T07:42:54.193Z,13.76
2017-05-09T07:45:48.670Z,13.99
2017-05-09T07:48:43.337Z,14.62
2017-05-09T07:51:37.936Z,14.92
2017-05-09T07:54:32.562Z,14.97
2017-05-09T07:57:27.217Z,14.86
2017-05-09T08:03:16.484Z,15.43
2017-05-09T08:06:11.300Z,15.59
2017-05-09T08:09:05.996Z,15.53
2017-05-09T08:12:00.414Z,15.72
2017-05-09T08:14:55.017Z,16.59
2017-05-09T08:17:49.884Z,17.93
2017-05-09T08:20:44.608Z,18.70
2017-05-09T08:23:39.607Z,20.16
2017-05-09T08:26:34.608Z,21.09
2017-05-09T08:29:29.771Z,21.69
2017-05-09T08:32:24.796Z,21.57
2017-05-09T08:35:19.616Z,20.17
2017-05-09T08:38:14.162Z,18.75
2017-05-09T08:41:08.795Z,18.50
2017-05-09T08:44:03.367Z,17.86
2017-05-09T08:46:57.934Z,17.45
2017-05-09T08:49:52.623Z,18.24
2017-05-09T08:52:47.471Z,19.26
2017-05-09T08:55:42.125Z,18.45
2017-05-09T08:58:36.801Z,17.13
2017-05-09T09:01:31.235Z,15.73
2017-05-09T09:04:25.686Z,14.54
2017-05-09T09:07:20.066Z,13.96
2017-05-09T09:10:14.498Z,14.48
2017-05-09T09:13:09.158Z,16.73
2017-05-09T09:16:04.155Z,20.25
2017-05-09T09:18:59.421Z,23.60
2017-05-09T09:21:54.882Z,26.17
2017-05-09T09:24:50.319Z,28.13
2017-05-09T09:27:45.793Z,29.82
2017-05-09T09:30:41.699Z,31.19
2017-05-09T09:33:37.327Z,29.87
2017-05-09T09:36:32.615Z,30.21
2017-05-09T09:39:27.941Z,31.24
2017-05-09T09:42:23.259Z,32.47
2017-05-09T09:45:18.736Z,33.56
2017-05-09T09:48:14.141Z,33.96
2017-05-09T09:51:09.753Z,34.47
2017-05-09T09:54:05.046Z,34.84
2017-05-09T09:57:00.498Z,35.27
2017-05-09T09:59:55.927Z,35.56
2017-05-09T10:02:51.243Z,36.45
2017-05-09T10:05:46.627Z,36.01
2017-05-09T10:08:41.954Z,32.88
2017-05-09T10:11:36.632Z,30.13
2017-05-09T10:14:31.339Z,28.92
2017-05-09T10:17:25.931Z,26.19
2017-05-09T10:20:20.634Z,24.01
2017-05-09T10:23:15.033Z,22.28
2017-05-09T10:26:09.379Z,20.83
2017-05-09T10:29:03.717Z,19.40
2017-05-09T10:31:58.071Z,18.25
2017-05-09T10:34:52.446Z,17.64
2017-05-09T10:40:41.483Z,17.00
2017-05-09T10:43:35.930Z,17.11
2017-05-09T10:46:30.428Z,17.20
2017-05-09T10:49:25.111Z,17.16
2017-05-09T10:52:19.646Z,16.76
2017-05-09T10:55:14.065Z,16.02
2017-05-09T10:58:08.547Z,15.56
2017-05-09T11:01:02.944Z,15.07
2017-05-09T11:03:57.373Z,14.53
2017-05-09T11:06:51.764Z,13.83
2017-05-09T11:09:46.052Z,13.45
2017-05-09T11:12:40.206Z,13.05
2017-05-09T11:18:28.605Z,12.02
2017-05-09T11:21:22.790Z,11.66
2017-05-09T11:24:17.047Z,11.37
2017-05-09T11:27:11.296Z,11.11
2017-05-09T11:30:05.583Z,10.97
2017-05-09T11:33:00.122Z,10.81
2017-05-09T11:35:54.226Z,10.71
2017-05-09T11:38:48.324Z,10.58
2017-05-09T11:41:42.668Z,10.62
2017-05-09T11:44:36.867Z,10.68
2017-05-09T11:47:31.143Z,10.72
2017-05-09T11:53:19.581Z,10.33
2017-05-09T11:56:13.700Z,10.44
2017-05-09T11:59:08.003Z,10.44
2017-05-09T12:02:02.681Z,10.57
2017-05-09T12:04:56.991Z,10.66
2017-05-09T12:07:51.441Z,10.71
2017-05-09T12:10:45.842Z,10.72
2017-05-09T12:13:40.054Z,10.69
2017-05-09T12:16:34.350Z,10.69
2017-05-09T12:19:28.763Z,10.67
2017-05-09T12:22:22.892Z,10.63
2017-05-09T12:28:11.400Z,10.59
2017-05-09T12:31:05.822Z,10.58
2017-05-09T12:34:00.098Z,10.57
2017-05-09T12:36:54.469Z,10.58
2017-05-09T12:39:48.833Z,10.65
2017-05-09T12:42:43.176Z,10.72
2017-05-09T12:45:37.385Z,10.80
2017-05-09T12:48:31.728Z,10.88
2017-05-09T12:51:26.009Z,10.96
2017-05-09T12:54:20.354Z,11.08
2017-05-09T13:00:09.120Z,11.38
2017-05-09T13:03:03.683Z,11.61
2017-05-09T13:05:58.058Z,11.73
2017-05-09T13:08:52.461Z,11.82
2017-05-09T13:11:46.848Z,11.94
2017-05-09T13:14:41.273Z,11.98
2017-05-09T13:17:35.707Z,11.96
2017-05-09T13:20:30.061Z,11.96
2017-05-09T13:23:24.361Z,11.89
2017-05-09T13:26:18.682Z,11.83
2017-05-09T13:29:12.980Z,11.78
2017-05-09T13:32:07.504Z,11.77
2017-05-09T13:35:02.061Z,11.84
2017-05-09T13:37:56.504Z,11.97
2017-05-09T13:40:50.909Z,12.15
2017-05-09T13:43:45.212Z,12.23
2017-05-09T13:46:39.640Z,12.28
2017-05-09T13:49:34.046Z,12.26
2017-05-09T13:52:28.406Z,12.21
2017-05-09T13:55:22.799Z,12.21
2017-05-09T14:01:11.689Z,12.26
2017-05-09T14:07:00.635Z,12.25
2017-05-09T14:09:55.045Z,12.24
2017-05-09T14:12:49.405Z,12.22
2017-05-09T14:15:43.983Z,12.19
2017-05-09T14:18:38.300Z,12.05
2017-05-09T14:21:32.698Z,11.94
2017-05-09T14:27:22.152Z,11.74
2017-05-09T14:33:10.723Z,11.63
2017-05-09T14:36:04.983Z,11.60
2017-05-09T14:38:59.313Z,11.58
2017-05-09T14:41:53.612Z,11.54
2017-05-09T14:44:47.882Z,11.53
2017-05-09T14:47:42.267Z,11.50
2017-05-09T14:50:36.622Z,11.48
2017-05-09T14:53:30.958Z,11.49
2017-05-09T14:56:25.226Z,11.52
2017-05-09T14:59:19.538Z,11.55
2017-05-09T15:02:13.893Z,11.57
2017-05-09T15:05:08.236Z,11.61
2017-05-09T15:08:02.516Z,11.68
2017-05-09T15:10:56.761Z,11.73
2017-05-09T15:13:51.149Z,11.83
2017-05-09T15:16:45.566Z,11.92
2017-05-09T15:19:39.935Z,11.98
2017-05-09T15:22:34.363Z,12.00
2017-05-09T15:25:28.711Z,12.04
2017-05-09T15:28:22.997Z,12.06
2017-05-09T15:31:17.441Z,12.08
2017-05-09T15:34:11.897Z,12.08
2017-05-09T15:37:06.131Z,12.05
2017-05-09T15:40:00.537Z,12.01
2017-05-09T15:42:54.814Z,11.95
2017-05-09T15:45:49.141Z,11.88
2017-05-09T15:48:43.465Z,11.82
2017-05-09T15:51:37.841Z,11.74
2017-05-09T15:54:32.022Z,11.67
2017-05-09T15:57:26.270Z,11.63
2017-05-09T16:00:20.645Z,11.59
2017-05-09T16:03:15.033Z,11.54
2017-05-09T16:06:09.372Z,11.48
2017-05-09T16:09:03.794Z,11.44
2017-05-09T16:11:58.142Z,11.40
2017-05-09T16:14:52.320Z,11.35
2017-05-09T16:17:46.522Z,11.33
2017-05-09T16:20:40.810Z,11.34
2017-05-09T16:23:35.099Z,11.38
2017-05-09T16:26:29.538Z,11.43
2017-05-09T16:29:23.854Z,11.47
2017-05-09T16:32:18.168Z,11.49
2017-05-09T16:35:12.489Z,11.50
2017-05-09T16:38:06.792Z,11.50
2017-05-09T16:41:01.277Z,11.49
2017-05-09T16:43:55.504Z,11.49
2017-05-09T16:46:49.827Z,11.51
2017-05-09T16:49:44.187Z,11.51
2017-05-09T16:52:38.497Z,11.48
2017-05-09T16:55:32.878Z,11.43
2017-05-09T16:58:27.280Z,11.42
2017-05-09T17:01:21.669Z,11.41
2017-05-09T17:04:16.030Z,11.40
2017-05-09T17:07:10.272Z,11.37
2017-05-09T17:10:04.601Z,11.37
2017-05-09T17:12:58.903Z,11.37
2017-05-09T17:15:53.230Z,11.39
2017-05-09T17:18:47.565Z,11.40
2017-05-09T17:21:41.885Z,11.41
2017-05-09T17:24:36.152Z,11.40
2017-05-09T17:27:30.432Z,11.37
2017-05-09T17:30:24.719Z,11.33
2017-05-09T17:33:19.033Z,11.29
2017-05-09T17:36:13.374Z,11.26
2017-05-09T17:39:07.564Z,11.26
2017-05-09T17:42:01.902Z,11.24
2017-05-09T17:44:56.197Z,11.24
2017-05-09T17:47:50.725Z,11.24
2017-05-09T17:50:44.754Z,11.19
2017-05-09T17:53:38.987Z,11.15
2017-05-09T17:56:33.268Z,11.13
2017-05-09T17:59:27.534Z,11.12
2017-05-09T18:02:21.927Z,11.10
2017-05-09T18:05:16.228Z,11.08
2017-05-09T18:08:10.570Z,11.08
2017-05-09T18:11:04.844Z,11.06
2017-05-09T18:13:59.037Z,11.04
2017-05-09T18:16:53.363Z,11.02
2017-05-09T18:19:47.656Z,10.99
2017-05-09T18:22:41.854Z,10.95
2017-05-09T18:25:36.173Z,10.93
2017-05-09T18:28:30.484Z,10.88
2017-05-09T18:31:24.837Z,10.83
2017-05-09T18:34:19.153Z,10.77
2017-05-09T18:37:13.520Z,10.71
2017-05-09T18:40:07.726Z,10.65
2017-05-09T18:43:02.017Z,10.60
2017-05-09T18:45:56.215Z,10.54
2017-05-09T18:48:50.473Z,10.47
2017-05-09T18:51:44.780Z,10.40
2017-05-09T18:54:38.991Z,10.34
2017-05-09T18:57:33.282Z,10.27
2017-05-09T19:00:27.498Z,10.20
2017-05-09T19:03:21.658Z,10.12
2017-05-09T19:06:15.877Z,10.06
2017-05-09T19:09:10.135Z,9.99
2017-05-09T19:12:04.260Z,9.92
2017-05-09T19:14:58.411Z,9.86
2017-05-09T19:17:52.564Z,9.81
2017-05-09T19:20:46.774Z,9.77
2017-05-09T19:23:40.939Z,9.70
2017-05-09T19:26:35.130Z,9.64
2017-05-09T19:29:29.415Z,9.57
2017-05-09T19:32:23.595Z,9.51
2017-05-09T19:35:17.769Z,9.47
2017-05-09T19:38:12.035Z,9.41
2017-05-09T19:41:06.242Z,9.37
2017-05-09T19:44:00.545Z,9.32
2017-05-09T19:46:54.769Z,9.25
2017-05-09T19:49:49.015Z,9.17
2017-05-09T19:52:43.082Z,9.11
2017-05-09T19:58:31.466Z,9.00
2017-05-09T20:01:25.426Z,8.95
2017-05-09T20:04:19.596Z,8.89
2017-05-09T20:07:13.647Z,8.84
2017-05-09T20:10:07.879Z,8.80
2017-05-09T20:13:02.007Z,8.76
2017-05-09T20:18:50.479Z,8.74
2017-05-09T20:21:44.604Z,8.71
2017-05-09T20:27:32.794Z,8.72
2017-05-09T20:30:26.917Z,8.74
2017-05-09T20:33:21.003Z,8.75
2017-05-09T20:36:15.101Z,8.77
2017-05-09T20:39:09.123Z,8.79
2017-05-09T20:42:03.277Z,8.82
2017-05-09T20:47:51.513Z,8.84
2017-05-09T20:50:45.681Z,8.86
2017-05-09T20:53:39.800Z,8.88
2017-05-09T20:56:33.839Z,8.87
2017-05-09T20:59:27.995Z,8.85
2017-05-09T21:05:16.213Z,8.78
2017-05-09T21:08:10.265Z,8.74
2017-05-09T21:11:04.391Z,8.71
2017-05-09T21:13:58.531Z,8.69
2017-05-09T21:16:52.661Z,8.66
2017-05-09T21:19:46.745Z,8.61
2017-05-09T21:22:40.919Z,8.56
2017-05-09T21:25:34.874Z,8.51
2017-05-09T21:28:29.016Z,8.45
2017-05-09T21:31:23.192Z,8.41
2017-05-09T21:34:17.356Z,8.38
2017-05-09T21:37:11.600Z,8.35
2017-05-09T21:40:05.765Z,8.32
2017-05-09T21:42:59.992Z,8.32
2017-05-09T21:45:54.239Z,8.33
2017-05-09T21:51:42.716Z,8.38
2017-05-09T21:54:37.010Z,8.40
2017-05-09T21:57:31.250Z,8.42
2017-05-09T22:00:25.354Z,8.45
2017-05-09T22:03:19.618Z,8.47
2017-05-09T22:06:13.895Z,8.48
2017-05-09T22:09:08.125Z,8.50
2017-05-09T22:12:02.427Z,8.51
2017-05-09T22:14:56.654Z,8.53
2017-05-09T22:17:50.861Z,8.54
2017-05-09T22:23:39.273Z,8.56
2017-05-09T22:26:33.497Z,8.57
2017-05-09T22:29:27.730Z,8.57
2017-05-09T22:32:21.973Z,8.58
2017-05-09T22:38:10.527Z,8.59
2017-05-09T22:41:04.749Z,8.60
2017-05-09T22:43:59.039Z,8.60
2017-05-09T22:46:53.237Z,8.60
2017-05-09T22:49:47.410Z,8.61
2017-05-09T22:52:41.696Z,8.61
2017-05-09T22:55:35.892Z,8.61
2017-05-09T22:58:30.137Z,8.62
2017-05-09T23:01:24.388Z,8.62
2017-05-09T23:04:18.598Z,8.61
2017-05-09T23:07:12.928Z,8.60
2017-05-09T23:10:07.173Z,8.60
2017-05-09T23:13:01.447Z,8.60
2017-05-09T23:18:49.929Z,8.60
2017-05-09T23:21:44.134Z,8.58
2017-05-09T23:24:38.337Z,8.58
2017-05-09T23:27:32.522Z,8.57
2017-05-09T23:30:26.766Z,8.56
2017-05-09T23:36:15.244Z,8.52
2017-05-09T23:39:09.427Z,8.50
2017-05-09T23:42:03.724Z,8.48
2017-05-09T23:44:57.917Z,8.47
2017-05-09T23:47:52.245Z,8.47
2017-05-09T23:50:46.412Z,8.46
2017-05-09T23:53:40.678Z,8.44
2017-05-09T23:56:34.872Z,8.43
2017-05-09T23:59:29.102Z,8.43
